Time,TemperatureF,DewpointF,PressureIn,WindDirection,WindDirectionDegrees,WindSpeedMPH,WindSpeedGustMPH,Humidity,HourlyPrecipIn,Conditions,Clouds,dailyrainin,SoftwareType,DateUTC
2013-07-20 00:00:00,70.5,68.7,30.09,East,90,0.0,2.9,94,0.00,,-RA,0.00,VWS V14.01,2013-07-20 04:00:00,
2013-07-20 00:01:00,70.5,68.7,30.09,East,90,0.0,2.9,94,0.00,,-RA,0.00,VWS V14.01,2013-07-20 04:01:00,
2013-07-20 00:06:00,70.3,68.5,30.09,NNE,22,0.0,2.2,94,0.00,,-RA,0.00,VWS V14.01,2013-07-20 04:06:00,
2013-07-20 00:11:00,70.7,68.9,30.09,East,90,0.0,1.6,94,0.00,,-RA,0.00,VWS V14.01,2013-07-20 04:11:00,
2013-07-20 00:16:00,70.9,69.1,30.09,NNW,338,1.1,2.7,94,0.00,,-RA,0.00,VWS V14.01,2013-07-20 04:16:00,
2013-07-20 00:21:00,70.9,68.8,30.09,NE,45,0.0,0.9,93,0.00,,-RA,36.38,VWS V14.01,2013-07-20 04:21:00,
2013-07-20 00:26:00,70.9,68.8,30.09,ESE,112,2.7,4.3,93,0.00,,-RA,36.38,VWS V14.01,2013-07-20 04:26:00,
2013-07-20 00:31:00,71.6,69.5,30.09,SSE,158,2.7,5.4,93,0.00,,-RA,36.38,VWS V14.01,2013-07-20 04:31:00,
2013-07-20 00:36:00,72.3,69.9,30.09,SSE,158,3.1,7.8,92,0.00,,-RA,36.38,VWS V14.01,2013-07-20 04:36:00,
2013-07-20 00:41:00,72.5,69.4,30.09,South,180,3.6,8.1,90,0.00,,-RA,36.38,VWS V14.01,2013-07-20 04:41:00,
2013-07-20 00:46:00,72.5,69.1,30.06,SE,135,2.7,5.6,89,0.00,,-RA,36.38,VWS V14.01,2013-07-20 04:46:00,
2013-07-20 00:51:00,72.7,69.3,30.06,SE,135,3.8,4.7,89,0.00,,-RA,36.38,VWS V14.01,2013-07-20 04:51:00,
2013-07-20 00:56:00,72.9,69.1,30.06,ESE,112,3.8,6.5,88,0.00,,-RA,36.38,VWS V14.01,2013-07-20 04:56:00,
2013-07-20 01:01:00,72.9,69.1,30.06,ESE,112,2.0,4.0,88,0.00,,CLR,36.38,VWS V14.01,2013-07-20 05:01:00,
2013-07-20 01:06:00,72.9,69.1,30.06,ESE,112,2.9,6.5,88,0.00,,CLR,36.38,VWS V14.01,2013-07-20 05:06:00,
2013-07-20 01:11:00,72.9,68.8,30.06,SE,135,2.7,5.6,87,0.00,,CLR,36.38,VWS V14.01,2013-07-20 05:11:00,
2013-07-20 01:16:00,72.7,68.6,30.06,ENE,68,3.4,3.6,87,0.00,,CLR,36.38,VWS V14.01,2013-07-20 05:16:00,
2013-07-20 01:21:00,72.7,68.6,30.06,ESE,112,3.6,4.3,87,0.00,,CLR,36.38,VWS V14.01,2013-07-20 05:21:00,
2013-07-20 01:26:00,72.5,68.4,30.06,SE,135,2.0,3.6,87,0.00,,CLR,36.38,VWS V14.01,2013-07-20 05:26:00,
2013-07-20 01:31:00,72.3,68.2,30.06,ESE,112,0.0,3.8,87,0.00,,CLR,36.38,VWS V14.01,2013-07-20 05:31:00,
2013-07-20 01:36:00,72.0,67.9,30.06,North,0,0.9,2.2,87,0.00,,CLR,36.38,VWS V14.01,2013-07-20 05:36:00,
2013-07-20 01:41:00,71.4,67.3,30.06,NE,45,1.3,2.0,87,0.00,,CLR,36.38,VWS V14.01,2013-07-20 05:41:00,
2013-07-20 01:46:00,71.2,67.5,30.06,NW,315,2.5,2.5,88,0.00,,CLR,36.38,VWS V14.01,2013-07-20 05:46:00,
2013-07-20 01:51:00,70.9,67.2,30.06,NE,45,0.0,1.3,88,0.00,,CLR,36.38,VWS V14.01,2013-07-20 05:51:00,
2013-07-20 01:56:00,71.1,68.0,30.06,NE,45,1.6,3.8,90,0.00,,CLR,36.38,VWS V14.01,2013-07-20 05:56:00,
2013-07-20 02:01:00,71.1,68.0,30.06,ESE,112,0.0,1.6,90,0.00,,CLR,36.38,VWS V14.01,2013-07-20 06:01:00,
2013-07-20 02:06:00,71.1,68.3,30.06,NE,45,0.0,3.1,91,0.00,,CLR,36.38,VWS V14.01,2013-07-20 06:06:00,
2013-07-20 02:11:00,70.7,67.6,30.06,East,90,0.9,1.6,90,0.00,,CLR,36.38,VWS V14.01,2013-07-20 06:11:00,
2013-07-20 02:16:00,70.5,67.4,30.06,NE,45,0.0,1.1,90,0.00,,CLR,36.38,VWS V14.01,2013-07-20 06:16:00,
2013-07-20 02:21:00,70.5,67.8,30.06,NW,315,0.0,2.5,91,0.00,,CLR,36.38,VWS V14.01,2013-07-20 06:21:00,
2013-07-20 02:26:00,70.3,67.6,30.06,North,0,0.0,1.3,91,0.00,,CLR,36.38,VWS V14.01,2013-07-20 06:26:00,
2013-07-20 02:31:00,70.0,67.2,30.09,North,0,0.0,0.0,91,0.00,,CLR,36.38,VWS V14.01,2013-07-20 06:31:00,
2013-07-20 02:36:00,70.0,67.2,30.09,South,180,2.9,3.4,91,0.00,,CLR,36.38,VWS V14.01,2013-07-20 06:36:00,
2013-07-20 02:41:00,69.6,67.2,30.09,South,180,0.0,0.9,92,0.00,,CLR,36.38,VWS V14.01,2013-07-20 06:41:00,
2013-07-20 02:46:00,69.3,66.8,30.09,SE,135,0.0,1.3,92,0.00,,CLR,36.38,VWS V14.01,2013-07-20 06:46:00,
2013-07-20 02:51:00,69.3,67.2,30.09,East,90,1.3,2.2,93,0.00,,CLR,36.38,VWS V14.01,2013-07-20 06:51:00,
2013-07-20 02:56:00,69.3,67.5,30.09,NNW,338,1.6,2.5,94,0.00,,CLR,36.38,VWS V14.01,2013-07-20 06:56:00,
2013-07-20 03:01:00,69.1,67.3,30.09,East,90,2.0,3.4,94,0.00,,CLR,36.38,VWS V14.01,2013-07-20 07:01:00,
2013-07-20 03:06:00,69.1,67.6,30.09,East,90,2.9,3.8,95,0.00,,CLR,36.38,VWS V14.01,2013-07-20 07:06:00,
2013-07-20 03:11:00,69.1,67.6,30.09,NNW,338,1.3,2.2,95,0.00,,CLR,36.38,VWS V14.01,2013-07-20 07:11:00,
2013-07-20 03:16:00,69.1,67.9,30.06,SSE,158,3.4,4.9,96,0.00,,CLR,36.38,VWS V14.01,2013-07-20 07:16:00,
2013-07-20 03:21:00,69.1,67.9,30.06,East,90,2.5,3.6,96,0.00,,CLR,36.38,VWS V14.01,2013-07-20 07:21:00,
2013-07-20 03:26:00,68.9,67.7,30.06,ENE,68,0.0,1.1,96,0.00,,CLR,36.38,VWS V14.01,2013-07-20 07:26:00,
2013-07-20 03:31:00,68.9,68.0,30.06,East,90,0.0,2.5,97,0.00,,CLR,36.38,VWS V14.01,2013-07-20 07:31:00,
2013-07-20 03:36:00,69.1,68.2,30.06,ENE,68,0.0,3.4,97,0.00,,CLR,36.38,VWS V14.01,2013-07-20 07:36:00,
2013-07-20 03:41:00,68.9,68.0,30.06,SE,135,2.7,3.1,97,0.00,,CLR,36.38,VWS V14.01,2013-07-20 07:41:00,
2013-07-20 03:46:00,69.1,68.2,30.06,NW,315,0.0,3.4,97,0.00,,CLR,36.38,VWS V14.01,2013-07-20 07:46:00,
2013-07-20 03:51:00,68.9,68.0,30.06,SW,225,0.0,0.0,97,0.00,,CLR,36.38,VWS V14.01,2013-07-20 07:51:00,
2013-07-20 03:56:00,69.1,68.2,30.06,East,90,1.1,2.7,97,0.00,,CLR,36.38,VWS V14.01,2013-07-20 07:56:00,
2013-07-20 04:01:00,69.1,68.2,30.06,East,90,3.4,3.4,97,0.00,,CLR,36.38,VWS V14.01,2013-07-20 08:01:00,
2013-07-20 04:06:00,69.8,68.9,30.06,SE,135,3.6,6.5,97,0.00,,CLR,36.38,VWS V14.01,2013-07-20 08:06:00,
2013-07-20 04:11:00,70.2,69.6,30.06,East,90,2.9,4.7,98,0.00,,CLR,36.38,VWS V14.01,2013-07-20 08:11:00,
2013-07-20 04:16:00,70.3,69.4,30.06,South,180,2.2,5.8,97,0.00,,CLR,36.38,VWS V14.01,2013-07-20 08:16:00,
2013-07-20 04:21:00,70.5,69.3,30.06,East,90,2.7,4.3,96,0.00,,CLR,36.38,VWS V14.01,2013-07-20 08:21:00,
2013-07-20 04:26:00,70.5,69.0,30.06,West,270,0.0,2.9,95,0.00,,CLR,36.38,VWS V14.01,2013-07-20 08:26:00,
2013-07-20 04:31:00,70.5,68.4,30.03,NE,45,0.0,2.5,93,0.00,,CLR,36.38,VWS V14.01,2013-07-20 08:31:00,
2013-07-20 04:36:00,70.3,67.9,30.03,South,180,1.3,2.7,92,0.00,,CLR,36.38,VWS V14.01,2013-07-20 08:36:00,
2013-07-20 04:41:00,69.8,67.1,30.03,SW,225,0.0,2.5,91,0.00,,CLR,36.38,VWS V14.01,2013-07-20 08:41:00,
2013-07-20 04:46:00,69.4,66.7,30.03,South,180,1.1,3.8,91,0.00,,CLR,36.38,VWS V14.01,2013-07-20 08:46:00,
2013-07-20 04:51:00,68.7,66.0,30.03,South,180,2.0,3.1,91,0.00,,CLR,36.38,VWS V14.01,2013-07-20 08:51:00,
2013-07-20 04:56:00,68.5,66.1,30.03,SE,135,1.3,3.8,92,0.00,,CLR,36.38,VWS V14.01,2013-07-20 08:56:00,
2013-07-20 05:01:00,68.2,66.1,30.03,South,180,0.0,2.2,93,0.00,,CLR,36.38,VWS V14.01,2013-07-20 09:01:00,
2013-07-20 05:06:00,67.8,65.7,30.03,NW,315,0.0,0.0,93,0.00,,CLR,36.38,VWS V14.01,2013-07-20 09:06:00,
2013-07-20 05:11:00,67.8,66.0,30.03,South,180,1.1,2.9,94,0.00,,CLR,36.38,VWS V14.01,2013-07-20 09:11:00,
2013-07-20 05:16:00,67.6,66.2,30.06,North,0,0.0,1.6,95,0.00,,CLR,36.38,VWS V14.01,2013-07-20 09:16:00,
2013-07-20 05:21:00,68.0,66.8,30.06,South,180,2.5,4.0,96,0.00,,CLR,36.38,VWS V14.01,2013-07-20 09:21:00,
2013-07-20 05:26:00,68.0,67.1,30.06,South,180,1.6,3.8,97,0.00,,CLR,36.38,VWS V14.01,2013-07-20 09:26:00,
2013-07-20 05:31:00,68.4,67.5,30.06,ESE,112,2.5,3.4,97,0.00,,CLR,36.38,VWS V14.01,2013-07-20 09:31:00,
2013-07-20 05:36:00,69.3,68.4,30.06,SW,225,0.0,6.0,97,0.00,,CLR,36.38,VWS V14.01,2013-07-20 09:36:00,
2013-07-20 05:41:00,68.5,67.7,30.06,SSE,158,3.1,3.1,97,0.00,,CLR,36.38,VWS V14.01,2013-07-20 09:41:00,
2013-07-20 05:46:00,68.2,67.3,30.06,South,180,0.9,2.7,97,0.00,,CLR,36.38,VWS V14.01,2013-07-20 09:46:00,
2013-07-20 05:51:00,68.0,66.8,30.06,East,90,0.9,0.9,96,0.00,,CLR,36.38,VWS V14.01,2013-07-20 09:51:00,
2013-07-20 05:56:00,68.0,66.8,30.06,WSW,248,0.0,2.9,96,0.00,,CLR,36.38,VWS V14.01,2013-07-20 09:56:00,
2013-07-20 06:01:00,68.2,67.0,30.06,NW,315,1.6,2.0,96,0.00,,CLR,36.38,VWS V14.01,2013-07-20 10:01:00,
2013-07-20 06:06:00,68.5,67.7,30.06,East,90,4.0,4.0,97,0.00,,CLR,36.38,VWS V14.01,2013-07-20 10:06:00,
2013-07-20 06:11:00,68.5,67.7,30.06,SE,135,2.2,3.4,97,0.00,,CLR,36.38,VWS V14.01,2013-07-20 10:11:00,
2013-07-20 06:16:00,68.0,66.8,30.06,South,180,1.3,3.8,96,0.00,,CLR,36.38,VWS V14.01,2013-07-20 10:16:00,
2013-07-20 06:21:00,67.6,66.5,30.06,South,180,0.0,0.0,96,0.00,,CLR,36.38,VWS V14.01,2013-07-20 10:21:00,
2013-07-20 06:26:00,67.3,65.8,30.06,East,90,0.0,2.5,95,0.00,,CLR,36.38,VWS V14.01,2013-07-20 10:26:00,
2013-07-20 06:31:00,67.8,66.6,30.09,West,270,0.0,2.2,96,0.00,,CLR,36.38,VWS V14.01,2013-07-20 10:31:00,
2013-07-20 06:36:00,67.6,66.5,30.09,West,270,0.0,1.3,96,0.00,,CLR,36.38,VWS V14.01,2013-07-20 10:36:00,
2013-07-20 06:41:00,67.6,66.5,30.09,SE,135,1.3,4.0,96,0.00,,CLR,36.38,VWS V14.01,2013-07-20 10:41:00,
2013-07-20 06:46:00,68.0,67.1,30.06,NE,45,1.3,2.7,97,0.00,,CLR,36.38,VWS V14.01,2013-07-20 10:46:00,
2013-07-20 06:51:00,68.5,67.7,30.06,ENE,68,1.1,2.5,97,0.00,,CLR,36.38,VWS V14.01,2013-07-20 10:51:00,
2013-07-20 06:56:00,69.1,68.5,30.06,NNW,338,3.1,4.0,98,0.00,,CLR,36.38,VWS V14.01,2013-07-20 10:56:00,
2013-07-20 07:01:00,69.3,68.7,30.06,ENE,68,2.2,3.6,98,0.00,,CLR,36.38,VWS V14.01,2013-07-20 11:01:00,
2013-07-20 07:06:00,69.4,68.6,30.06,North,0,0.0,1.6,97,0.00,,CLR,36.38,VWS V14.01,2013-07-20 11:06:00,
2013-07-20 07:11:00,69.4,68.6,30.06,NE,45,0.0,2.2,97,0.00,,CLR,36.38,VWS V14.01,2013-07-20 11:11:00,
2013-07-20 07:16:00,69.4,68.6,30.06,East,90,1.1,1.6,97,0.00,,CLR,36.38,VWS V14.01,2013-07-20 11:16:00,
2013-07-20 07:21:00,69.6,68.7,30.06,East,90,2.2,3.6,97,0.00,,CLR,36.38,VWS V14.01,2013-07-20 11:21:00,
2013-07-20 07:26:00,70.0,68.8,30.06,NE,45,0.0,1.3,96,0.00,,CLR,36.38,VWS V14.01,2013-07-20 11:26:00,
2013-07-20 07:31:00,70.0,68.8,30.09,North,0,0.0,2.0,96,0.00,,CLR,36.38,VWS V14.01,2013-07-20 11:31:00,
2013-07-20 07:36:00,70.0,68.5,30.09,North,0,0.0,0.0,95,0.00,,CLR,36.38,VWS V14.01,2013-07-20 11:36:00,
2013-07-20 07:41:00,70.2,68.7,30.09,North,0,1.3,1.3,95,0.00,,CLR,36.38,VWS V14.01,2013-07-20 11:41:00,
2013-07-20 07:46:00,70.3,68.8,30.09,North,0,0.9,2.2,95,0.00,,CLR,36.38,VWS V14.01,2013-07-20 11:46:00,
2013-07-20 07:51:00,70.3,68.5,30.09,ENE,68,0.0,0.0,94,0.00,,CLR,36.38,VWS V14.01,2013-07-20 11:51:00,
2013-07-20 07:56:00,70.7,68.9,30.09,North,0,0.0,0.0,94,0.00,,CLR,36.38,VWS V14.01,2013-07-20 11:56:00,
2013-07-20 08:01:00,71.1,69.2,30.09,East,90,0.9,1.6,94,0.00,,CLR,36.38,VWS V14.01,2013-07-20 12:01:00,
2013-07-20 08:06:00,71.6,68.8,30.09,East,90,2.5,3.4,91,0.00,,CLR,36.38,VWS V14.01,2013-07-20 12:06:00,
2013-07-20 08:11:00,72.0,68.9,30.09,East,90,2.0,2.7,90,0.00,,CLR,36.38,VWS V14.01,2013-07-20 12:11:00,
2013-07-20 08:16:00,72.0,68.6,30.12,WSW,248,1.3,2.7,89,0.00,,CLR,36.38,VWS V14.01,2013-07-20 12:16:00,
2013-07-20 08:21:00,72.5,68.8,30.12,NE,45,0.0,1.3,88,0.00,,CLR,36.38,VWS V14.01,2013-07-20 12:21:00,
2013-07-20 08:26:00,72.7,68.3,30.12,West,270,1.3,2.7,86,0.00,,CLR,36.38,VWS V14.01,2013-07-20 12:26:00,
2013-07-20 08:31:00,72.9,68.4,30.12,East,90,3.6,3.8,86,0.00,,CLR,36.38,VWS V14.01,2013-07-20 12:31:00,
2013-07-20 08:36:00,73.2,68.4,30.12,ENE,68,0.0,2.2,85,0.00,,CLR,36.38,VWS V14.01,2013-07-20 12:36:00,
2013-07-20 08:41:00,73.6,68.4,30.12,NW,315,2.0,2.5,84,0.00,,CLR,36.38,VWS V14.01,2013-07-20 12:41:00,
2013-07-20 08:46:00,73.9,68.8,30.09,SSW,202,0.9,1.6,84,0.00,,CLR,36.38,VWS V14.01,2013-07-20 12:46:00,
2013-07-20 08:51:00,74.3,68.8,30.09,ESE,112,0.9,1.3,83,0.00,,CLR,36.38,VWS V14.01,2013-07-20 12:51:00,
2013-07-20 08:56:00,75.0,69.2,30.09,East,90,1.6,1.6,82,0.00,,CLR,36.38,VWS V14.01,2013-07-20 12:56:00,
2013-07-20 09:01:00,75.6,69.7,30.09,SE,135,0.9,2.0,82,0.00,,BKN047,36.38,VWS V14.01,2013-07-20 13:01:00,
2013-07-20 09:06:00,76.1,69.5,30.09,ENE,68,1.3,2.0,80,0.00,,BKN047,36.38,VWS V14.01,2013-07-20 13:06:00,
2013-07-20 09:11:00,77.2,68.3,30.09,South,180,2.2,4.0,74,0.00,,BKN047,36.38,VWS V14.01,2013-07-20 13:11:00,
2013-07-20 09:16:00,77.7,66.8,30.09,SE,135,2.5,6.5,69,0.00,,BKN047,36.38,VWS V14.01,2013-07-20 13:16:00,
2013-07-20 09:21:00,78.4,67.4,30.09,East,90,2.5,3.8,69,0.00,,BKN047,36.38,VWS V14.01,2013-07-20 13:21:00,
2013-07-20 09:26:00,79.5,67.6,30.09,ESE,112,3.8,5.4,67,0.00,,BKN047,36.38,VWS V14.01,2013-07-20 13:26:00,
2013-07-20 09:31:00,80.6,67.3,30.09,East,90,3.8,5.6,64,0.00,,BKN047,36.38,VWS V14.01,2013-07-20 13:31:00,
2013-07-20 09:36:00,81.0,66.7,30.09,South,180,6.7,6.7,62,0.00,,BKN047,36.38,VWS V14.01,2013-07-20 13:36:00,
2013-07-20 09:41:00,80.8,66.6,30.09,SSW,202,2.9,5.6,62,0.00,,BKN047,36.38,VWS V14.01,2013-07-20 13:41:00,
2013-07-20 09:46:00,81.3,66.1,30.09,SSW,202,4.3,6.0,60,0.00,,BKN047,36.38,VWS V14.01,2013-07-20 13:46:00,
2013-07-20 09:51:00,82.9,67.6,30.09,South,180,2.9,6.0,60,0.00,,BKN047,36.38,VWS V14.01,2013-07-20 13:51:00,
2013-07-20 09:56:00,84.6,68.2,30.09,South,180,2.0,4.0,58,0.00,,BKN047,36.38,VWS V14.01,2013-07-20 13:56:00,
2013-07-20 10:01:00,85.6,67.1,30.09,SW,225,0.0,3.4,54,0.00,,BKN019,36.38,VWS V14.01,2013-07-20 14:01:00,
2013-07-20 10:06:00,85.6,65.4,30.09,South,180,3.1,5.8,51,0.00,,BKN019,36.38,VWS V14.01,2013-07-20 14:06:00,
2013-07-20 10:11:00,85.5,64.7,30.09,ESE,112,2.2,7.6,50,0.00,,BKN019,36.38,VWS V14.01,2013-07-20 14:11:00,
2013-07-20 10:16:00,86.0,65.2,30.09,WSW,248,2.9,4.9,50,0.00,,BKN019,36.38,VWS V14.01,2013-07-20 14:16:00,
2013-07-20 10:21:00,86.7,65.9,30.09,South,180,2.0,2.9,50,0.00,,BKN019,36.38,VWS V14.01,2013-07-20 14:21:00,
2013-07-20 10:26:00,87.3,64.6,30.09,SE,135,2.9,3.1,47,0.00,,BKN019,36.38,VWS V14.01,2013-07-20 14:26:00,
2013-07-20 10:31:00,86.7,63.5,30.09,SW,225,1.3,4.9,46,0.00,,BKN019,36.38,VWS V14.01,2013-07-20 14:31:00,
2013-07-20 10:36:00,87.3,65.2,30.09,WSW,248,1.6,7.6,48,0.00,,BKN019,36.38,VWS V14.01,2013-07-20 14:36:00,
2013-07-20 10:41:00,87.8,65.7,30.09,South,180,4.9,5.8,48,0.00,,BKN019,36.38,VWS V14.01,2013-07-20 14:41:00,
2013-07-20 10:46:00,87.3,62.7,30.09,ESE,112,2.9,7.2,44,0.00,,BKN019,36.38,VWS V14.01,2013-07-20 14:46:00,
2013-07-20 10:51:00,89.6,66.1,30.09,North,0,2.2,2.9,46,0.00,,BKN019,36.38,VWS V14.01,2013-07-20 14:51:00,
2013-07-20 10:56:00,90.3,64.1,30.09,SSE,158,5.4,5.4,42,0.00,,BKN019,36.38,VWS V14.01,2013-07-20 14:56:00,
2013-07-20 11:01:00,90.1,64.7,30.09,NE,45,2.0,4.7,43,0.00,,BKN045,36.38,VWS V14.01,2013-07-20 15:01:00,
2013-07-20 11:06:00,93.4,64.7,30.09,NNW,338,3.4,3.4,39,0.00,,BKN045,36.38,VWS V14.01,2013-07-20 15:06:00,
2013-07-20 11:11:00,91.4,63.0,30.09,North,0,1.3,5.8,39,0.00,,BKN045,36.38,VWS V14.01,2013-07-20 15:11:00,
2013-07-20 11:16:00,92.8,64.3,30.09,NNE,22,2.0,3.6,39,0.00,,BKN045,36.38,VWS V14.01,2013-07-20 15:16:00,
2013-07-20 11:21:00,95.9,65.5,30.09,South,180,2.9,3.6,37,0.00,,BKN045,36.38,VWS V14.01,2013-07-20 15:21:00,
2013-07-20 11:26:00,93.0,63.7,30.09,SW,225,1.1,4.0,38,0.00,,BKN045,36.38,VWS V14.01,2013-07-20 15:26:00,
2013-07-20 11:31:00,90.7,61.6,30.06,WSW,248,6.3,6.3,38,0.00,,BKN045,36.38,VWS V14.01,2013-07-20 15:31:00,
2013-07-20 11:36:00,90.0,61.7,30.06,WSW,248,2.5,7.4,39,0.00,,BKN045,36.38,VWS V14.01,2013-07-20 15:36:00,
2013-07-20 11:41:00,91.2,63.5,30.06,South,180,4.3,4.3,40,0.00,,BKN045,36.38,VWS V14.01,2013-07-20 15:41:00,
2013-07-20 11:46:00,91.2,64.9,30.09,South,180,2.9,3.4,42,0.00,,BKN045,36.38,VWS V14.01,2013-07-20 15:46:00,
2013-07-20 11:51:00,92.5,64.7,30.09,SSW,202,6.5,6.5,40,0.00,,BKN045,36.38,VWS V14.01,2013-07-20 15:51:00,
2013-07-20 11:56:00,92.8,65.7,30.09,South,180,3.4,3.6,41,0.00,,BKN045,36.38,VWS V14.01,2013-07-20 15:56:00,
2013-07-20 12:01:00,92.3,62.3,30.09,SSE,158,2.0,6.0,37,0.00,,BKN070,36.38,VWS V14.01,2013-07-20 16:01:00,
2013-07-20 12:06:00,90.5,62.2,30.09,South,180,2.5,4.5,39,0.00,,BKN070,36.38,VWS V14.01,2013-07-20 16:06:00,
2013-07-20 12:11:00,88.9,60.8,30.09,SE,135,4.5,7.4,39,0.00,,BKN070,36.38,VWS V14.01,2013-07-20 16:11:00,
2013-07-20 12:16:00,88.7,62.0,30.09,ESE,112,3.4,7.4,41,0.00,,BKN070,36.38,VWS V14.01,2013-07-20 16:16:00,
2013-07-20 12:21:00,91.0,64.8,30.09,SSE,158,3.1,6.5,42,0.00,,BKN070,36.38,VWS V14.01,2013-07-20 16:21:00,
2013-07-20 12:26:00,92.8,64.3,30.09,South,180,3.1,7.4,39,0.00,,BKN070,36.38,VWS V14.01,2013-07-20 16:26:00,
2013-07-20 12:31:00,90.0,61.0,30.09,SW,225,4.3,5.6,38,0.00,,BKN070,36.38,VWS V14.01,2013-07-20 16:31:00,
2013-07-20 12:36:00,88.3,61.7,30.09,South,180,5.6,6.3,41,0.00,,BKN070,36.38,VWS V14.01,2013-07-20 16:36:00,
2013-07-20 12:41:00,90.1,62.6,30.09,South,180,2.9,5.8,40,0.00,,BKN070,36.38,VWS V14.01,2013-07-20 16:41:00,
2013-07-20 12:46:00,92.5,64.7,30.06,East,90,1.3,3.4,40,0.00,,BKN070,36.38,VWS V14.01,2013-07-20 16:46:00,
2013-07-20 12:51:00,93.0,63.7,30.06,South,180,3.1,4.0,38,0.00,,BKN070,36.38,VWS V14.01,2013-07-20 16:51:00,
2013-07-20 12:56:00,94.8,62.1,30.06,SE,135,4.3,4.3,34,0.00,,BKN070,36.38,VWS V14.01,2013-07-20 16:56:00,
2013-07-20 13:01:00,94.5,60.9,30.03,South,180,3.4,6.0,33,0.00,,-RA,36.38,VWS V14.01,2013-07-20 17:01:00,
2013-07-20 13:06:00,91.2,60.6,30.03,South,180,3.4,8.7,36,0.00,,-RA,36.38,VWS V14.01,2013-07-20 17:06:00,
2013-07-20 13:11:00,94.1,61.5,30.03,SW,225,1.1,3.6,34,0.00,,-RA,36.38,VWS V14.01,2013-07-20 17:11:00,
2013-07-20 13:16:00,96.3,61.6,30.03,SE,135,3.4,4.7,32,0.00,,-RA,36.38,VWS V14.01,2013-07-20 17:16:00,
2013-07-20 13:21:00,96.4,61.8,30.03,SSW,202,6.3,6.3,32,0.00,,-RA,36.38,VWS V14.01,2013-07-20 17:21:00,
2013-07-20 13:26:00,96.3,61.6,30.03,South,180,4.5,4.5,32,0.00,,-RA,36.38,VWS V14.01,2013-07-20 17:26:00,
2013-07-20 13:31:00,93.7,60.3,30.03,South,180,3.1,8.1,33,0.00,,-RA,36.38,VWS V14.01,2013-07-20 17:31:00,
2013-07-20 13:36:00,92.7,59.4,30.03,South,180,5.8,7.2,33,0.00,,-RA,36.38,VWS V14.01,2013-07-20 17:36:00,
2013-07-20 13:41:00,92.1,60.6,30.03,South,180,6.0,7.6,35,0.00,,-RA,36.38,VWS V14.01,2013-07-20 17:41:00,
2013-07-20 13:46:00,92.3,61.5,30.03,South,180,6.0,8.7,36,0.00,,-RA,36.38,VWS V14.01,2013-07-20 17:46:00,
2013-07-20 13:51:00,92.1,62.1,30.03,SE,135,6.5,9.4,37,0.00,,-RA,36.38,VWS V14.01,2013-07-20 17:51:00,
2013-07-20 13:56:00,92.3,63.0,30.03,SSE,158,7.6,8.1,38,0.00,,-RA,36.38,VWS V14.01,2013-07-20 17:56:00,
2013-07-20 14:01:00,94.8,62.9,30.03,SE,135,3.4,5.6,35,0.00,,-RA,36.38,VWS V14.01,2013-07-20 18:01:00,
2013-07-20 14:06:00,95.2,64.0,30.03,SE,135,3.6,4.3,36,0.00,,-RA,36.38,VWS V14.01,2013-07-20 18:06:00,
2013-07-20 14:11:00,98.6,62.8,30.03,South,180,2.5,4.7,31,0.00,,-RA,36.38,VWS V14.01,2013-07-20 18:11:00,
2013-07-20 14:16:00,96.6,63.7,30.00,West,270,2.2,4.9,34,0.00,,-RA,36.38,VWS V14.01,2013-07-20 18:16:00,
2013-07-20 14:21:00,94.8,61.3,30.00,WSW,248,2.7,6.5,33,0.00,,-RA,36.38,VWS V14.01,2013-07-20 18:21:00,
2013-07-20 14:26:00,92.7,59.4,30.00,South,180,4.9,9.2,33,0.00,,-RA,36.38,VWS V14.01,2013-07-20 18:26:00,
2013-07-20 14:31:00,95.7,62.9,30.00,South,180,3.6,6.5,34,0.00,,-RA,36.38,VWS V14.01,2013-07-20 18:31:00,
2013-07-20 14:36:00,94.3,59.9,30.00,South,180,2.9,6.3,32,0.00,,-RA,36.38,VWS V14.01,2013-07-20 18:36:00,
2013-07-20 14:41:00,94.5,60.1,30.00,South,180,5.8,6.0,32,0.00,,-RA,36.38,VWS V14.01,2013-07-20 18:41:00,
2013-07-20 14:46:00,96.8,63.0,30.03,SSW,202,0.9,4.3,33,0.00,,-RA,36.38,VWS V14.01,2013-07-20 18:46:00,
2013-07-20 14:51:00,97.5,61.8,30.03,SSE,158,2.0,3.8,31,0.00,,-RA,36.38,VWS V14.01,2013-07-20 18:51:00,
2013-07-20 14:56:00,96.6,62.8,30.03,South,180,4.0,5.4,33,0.00,,-RA,36.38,VWS V14.01,2013-07-20 18:56:00,
2013-07-20 15:01:00,96.3,62.5,30.03,West,270,1.6,3.8,33,0.00,,BKN055,36.38,VWS V14.01,2013-07-20 19:01:00,
2013-07-20 15:06:00,96.4,60.9,30.03,SW,225,4.0,4.0,31,0.00,,BKN055,36.38,VWS V14.01,2013-07-20 19:06:00,
2013-07-20 15:11:00,97.2,60.6,30.03,SSW,202,2.7,4.3,30,0.00,,BKN055,36.38,VWS V14.01,2013-07-20 19:11:00,
2013-07-20 15:16:00,95.0,59.7,30.03,SSE,158,3.4,4.7,31,0.00,,BKN055,36.38,VWS V14.01,2013-07-20 19:16:00,
2013-07-20 15:22:00,94.8,60.4,30.03,South,180,4.5,4.7,32,0.00,,BKN055,36.38,VWS V14.01,2013-07-20 19:22:00,
2013-07-20 15:27:00,95.5,61.9,30.03,SSW,202,3.8,4.9,33,0.00,,BKN055,36.38,VWS V14.01,2013-07-20 19:27:00,
2013-07-20 15:32:00,94.8,59.5,30.00,South,180,4.3,5.4,31,0.00,,BKN055,36.38,VWS V14.01,2013-07-20 19:32:00,
2013-07-20 15:37:00,95.7,61.2,30.00,SW,225,1.1,3.4,32,0.00,,BKN055,36.38,VWS V14.01,2013-07-20 19:37:00,
2013-07-20 15:42:00,99.3,61.5,30.00,South,180,3.6,3.8,29,0.00,,BKN055,36.38,VWS V14.01,2013-07-20 19:42:00,
2013-07-20 15:47:00,96.4,60.9,30.00,SW,225,2.2,3.6,31,0.00,,BKN055,36.38,VWS V14.01,2013-07-20 19:47:00,
2013-07-20 15:52:00,99.0,63.1,30.00,West,270,2.2,2.2,31,0.00,,BKN055,36.38,VWS V14.01,2013-07-20 19:52:00,
2013-07-20 15:57:00,100.0,61.1,30.00,NW,315,1.3,4.9,28,0.00,,BKN055,36.38,VWS V14.01,2013-07-20 19:57:00,
2013-07-20 16:02:00,99.3,60.5,30.00,WSW,248,0.0,4.3,28,0.00,,SCT038,36.38,VWS V14.01,2013-07-20 20:02:00,
2013-07-20 16:07:00,98.2,60.6,30.00,East,90,0.9,2.7,29,0.00,,SCT038,36.38,VWS V14.01,2013-07-20 20:07:00,
2013-07-20 16:12:00,96.4,60.0,30.00,SE,135,1.6,2.5,30,0.00,,SCT038,36.38,VWS V14.01,2013-07-20 20:12:00,
2013-07-20 16:17:00,95.7,62.0,30.00,SSW,202,3.1,4.3,33,0.00,,SCT038,36.38,VWS V14.01,2013-07-20 20:17:00,
2013-07-20 16:22:00,97.9,63.9,30.00,South,180,2.5,3.8,33,0.00,,SCT038,36.38,VWS V14.01,2013-07-20 20:22:00,
2013-07-20 16:27:00,93.6,60.2,30.00,SE,135,2.9,6.9,33,0.00,,SCT038,36.38,VWS V14.01,2013-07-20 20:27:00,
2013-07-20 16:32:00,92.1,60.6,30.00,SE,135,2.5,3.1,35,0.00,,SCT038,36.38,VWS V14.01,2013-07-20 20:32:00,
2013-07-20 16:37:00,95.9,62.2,30.00,South,180,3.1,3.1,33,0.00,,SCT038,36.38,VWS V14.01,2013-07-20 20:37:00,
2013-07-20 16:42:00,96.1,62.3,30.00,West,270,2.0,5.6,33,0.00,,SCT038,36.38,VWS V14.01,2013-07-20 20:42:00,
2013-07-20 16:47:00,96.6,61.0,30.00,SSW,202,2.7,4.7,31,0.00,,SCT038,36.38,VWS V14.01,2013-07-20 20:47:00,
2013-07-20 16:53:00,97.3,62.6,30.00,SW,225,2.0,4.3,32,0.00,,SCT038,36.38,VWS V14.01,2013-07-20 20:53:00,
2013-07-20 16:58:00,96.3,59.8,30.00,South,180,3.1,5.8,30,0.00,,SCT038,36.38,VWS V14.01,2013-07-20 20:58:00,
2013-07-20 17:03:00,97.2,60.6,30.00,South,180,2.9,4.3,30,0.00,,SCT095,36.38,VWS V14.01,2013-07-20 21:03:00,
2013-07-20 17:08:00,93.9,58.7,30.00,SW,225,0.9,5.8,31,0.00,,SCT095,36.38,VWS V14.01,2013-07-20 21:08:00,
2013-07-20 17:13:00,95.7,60.3,30.00,SW,225,4.9,4.9,31,0.00,,SCT095,36.38,VWS V14.01,2013-07-20 21:13:00,
2013-07-20 17:18:00,96.1,60.6,30.00,SE,135,7.4,7.4,31,0.00,,SCT095,36.38,VWS V14.01,2013-07-20 21:18:00,
2013-07-20 17:23:00,96.3,60.7,30.00,NE,45,0.0,4.3,31,0.00,,SCT095,36.38,VWS V14.01,2013-07-20 21:23:00,
2013-07-20 17:28:00,95.7,59.3,30.00,SSE,158,2.9,5.8,30,0.00,,SCT095,36.38,VWS V14.01,2013-07-20 21:28:00,
2013-07-20 17:33:00,93.4,59.1,30.00,South,180,2.9,5.6,32,0.00,,SCT095,36.38,VWS V14.01,2013-07-20 21:33:00,
2013-07-20 17:38:00,92.8,59.5,30.00,South,180,2.0,4.3,33,0.00,,SCT095,36.38,VWS V14.01,2013-07-20 21:38:00,
2013-07-20 17:43:00,93.9,59.6,29.97,WSW,248,1.6,4.9,32,0.00,,SCT095,36.38,VWS V14.01,2013-07-20 21:43:00,
2013-07-20 17:49:00,95.4,59.0,29.97,South,180,1.6,4.9,30,0.00,,SCT095,36.38,VWS V14.01,2013-07-20 21:49:00,
2013-07-20 17:54:00,90.9,58.6,29.97,SE,135,2.5,2.9,34,0.00,,SCT095,36.38,VWS V14.01,2013-07-20 21:54:00,
2013-07-20 17:59:00,88.7,59.1,29.97,SSW,202,2.0,3.8,37,0.00,,SCT095,36.38,VWS V14.01,2013-07-20 21:59:00,
2013-07-20 18:04:00,86.9,59.7,29.97,South,180,1.6,1.6,40,0.00,,BKN075,36.38,VWS V14.01,2013-07-20 22:04:00,
2013-07-20 18:09:00,86.0,60.3,29.97,SW,225,0.9,1.3,42,0.00,,BKN075,36.38,VWS V14.01,2013-07-20 22:09:00,
2013-07-20 18:14:00,84.2,61.2,30.00,South,180,0.0,0.0,46,0.00,,BKN075,36.38,VWS V14.01,2013-07-20 22:14:00,
2013-07-20 18:19:00,83.1,63.1,30.00,East,90,2.0,2.0,51,0.00,,BKN075,36.38,VWS V14.01,2013-07-20 22:19:00,
2013-07-20 18:24:00,82.6,62.1,30.00,South,180,2.5,2.5,50,0.00,,BKN075,36.38,VWS V14.01,2013-07-20 22:24:00,
2013-07-20 18:29:00,81.9,63.6,30.00,WNW,292,0.9,2.0,54,0.00,,BKN075,36.38,VWS V14.01,2013-07-20 22:29:00,
2013-07-20 18:34:00,81.7,63.4,30.00,NE,45,1.6,1.6,54,0.00,,BKN075,0.00,VWS V14.01,2013-07-20 22:34:00,
2013-07-20 18:39:00,81.1,65.0,30.00,NE,45,4.7,4.7,58,0.00,,BKN075,36.38,VWS V14.01,2013-07-20 22:39:00,
2013-07-20 18:44:00,80.4,59.5,30.00,SW,225,6.5,7.8,49,0.00,,BKN075,36.38,VWS V14.01,2013-07-20 22:44:00,
2013-07-20 18:49:00,79.9,58.5,30.00,South,180,4.3,6.5,48,0.00,,BKN075,36.38,VWS V14.01,2013-07-20 22:49:00,
2013-07-20 18:54:00,79.2,58.4,30.00,NNW,338,5.8,7.6,49,0.00,,BKN075,36.38,VWS V14.01,2013-07-20 22:54:00,
2013-07-20 18:59:00,78.8,59.2,30.03,NNW,338,3.4,3.4,51,0.00,,BKN075,36.38,VWS V14.01,2013-07-20 22:59:00,
2013-07-20 19:05:00,78.4,60.4,30.03,North,0,2.5,3.6,54,0.00,,BKN040,36.38,VWS V14.01,2013-07-20 23:05:00,
2013-07-20 19:10:00,78.3,60.3,30.03,ENE,68,0.0,0.9,54,0.00,,BKN040,36.38,VWS V14.01,2013-07-20 23:10:00,
2013-07-20 19:15:00,78.6,61.1,30.03,North,0,1.6,2.9,55,0.00,,BKN040,36.38,VWS V14.01,2013-07-20 23:15:00,
2013-07-20 19:20:00,79.7,61.6,30.03,NNW,338,2.5,2.7,54,0.00,,BKN040,36.38,VWS V14.01,2013-07-20 23:20:00,
2013-07-20 19:25:00,80.8,61.0,30.03,NW,315,1.6,2.7,51,0.00,,BKN040,36.38,VWS V14.01,2013-07-20 23:25:00,
2013-07-20 19:30:00,80.8,61.0,30.03,WNW,292,0.0,1.3,51,0.00,,BKN040,36.38,VWS V14.01,2013-07-20 23:30:00,
2013-07-20 19:35:00,80.6,60.3,30.03,NNW,338,2.5,2.5,50,0.00,,BKN040,36.38,VWS V14.01,2013-07-20 23:35:00,
2013-07-20 19:40:00,80.2,61.0,30.03,NW,315,2.7,3.1,52,0.00,,BKN040,36.38,VWS V14.01,2013-07-20 23:40:00,
2013-07-20 19:45:00,79.5,60.9,30.03,NNW,338,2.7,3.1,53,0.00,,BKN040,36.38,VWS V14.01,2013-07-20 23:45:00,
2013-07-20 19:50:00,78.8,60.2,30.03,NNE,22,2.7,2.7,53,0.00,,BKN040,36.38,VWS V14.01,2013-07-20 23:50:00,
2013-07-20 19:55:00,78.6,60.6,30.03,NW,315,0.0,1.3,54,0.00,,BKN040,36.38,VWS V14.01,2013-07-20 23:55:00,
2013-07-20 20:00:00,78.6,61.1,30.03,West,270,0.0,1.3,55,0.00,,BKN070,36.38,VWS V14.01,2013-07-21 00:00:00,
2013-07-20 20:05:00,78.3,61.8,30.03,NNW,338,2.9,2.9,57,0.00,,BKN070,36.38,VWS V14.01,2013-07-21 00:05:00,
2013-07-20 20:10:00,77.0,61.1,30.03,West,270,0.0,2.2,58,0.00,,BKN070,36.38,VWS V14.01,2013-07-21 00:10:00,
2013-07-20 20:15:00,75.9,61.5,30.00,NNW,338,1.1,4.5,61,0.00,,BKN070,36.38,VWS V14.01,2013-07-21 00:15:00,
2013-07-20 20:21:00,75.6,61.6,30.00,SW,225,0.0,0.0,62,0.00,,BKN070,36.38,VWS V14.01,2013-07-21 00:21:00,
2013-07-20 20:26:00,74.8,62.3,30.00,NE,45,0.0,0.9,65,0.00,,BKN070,36.38,VWS V14.01,2013-07-21 00:26:00,
2013-07-20 20:31:00,74.1,62.5,30.00,East,90,0.0,0.9,67,0.00,,-RA,36.38,VWS V14.01,2013-07-21 00:31:00,
2013-07-20 20:36:00,73.6,62.8,30.00,NNW,338,0.0,1.6,69,0.00,,-RA,36.38,VWS V14.01,2013-07-21 00:36:00,
2013-07-20 20:41:00,73.0,61.9,30.00,West,270,2.0,2.0,68,0.00,,-RA,36.38,VWS V14.01,2013-07-21 00:41:00,
2013-07-20 20:46:00,72.7,63.5,30.03,East,90,2.7,2.7,73,0.00,,-RA,36.38,VWS V14.01,2013-07-21 00:46:00,
2013-07-20 20:51:00,72.3,64.3,30.03,South,180,2.7,2.9,76,0.00,,-RA,36.38,VWS V14.01,2013-07-21 00:51:00,
2013-07-20 20:56:00,72.0,64.0,30.03,WNW,292,1.6,2.7,76,0.00,,-RA,36.38,VWS V14.01,2013-07-21 00:56:00,
2013-07-20 21:01:00,71.6,64.8,30.06,East,90,2.0,2.0,79,0.00,,-RA,36.38,VWS V14.01,2013-07-21 01:01:00,
2013-07-20 21:06:00,71.2,63.7,30.06,ESE,112,0.0,1.3,77,0.00,,-RA,36.38,VWS V14.01,2013-07-21 01:06:00,
2013-07-20 21:11:00,70.9,63.7,30.06,SE,135,2.0,2.0,78,0.00,,-RA,36.38,VWS V14.01,2013-07-21 01:11:00,
2013-07-20 21:16:00,70.5,64.4,30.03,ESE,112,0.0,2.0,81,0.00,,-RA,36.38,VWS V14.01,2013-07-21 01:16:00,
2013-07-20 21:21:00,70.0,63.5,30.03,West,270,0.0,0.0,80,0.00,,-RA,36.38,VWS V14.01,2013-07-21 01:21:00,
2013-07-20 21:26:00,69.6,63.2,30.03,NE,45,0.0,0.0,80,0.00,,-RA,36.38,VWS V14.01,2013-07-21 01:26:00,
2013-07-20 21:31:00,69.6,64.2,30.03,SE,135,2.0,2.2,83,0.00,,-RA,36.38,VWS V14.01,2013-07-21 01:31:00,
2013-07-20 21:36:00,69.4,64.7,30.03,SE,135,0.0,1.1,85,0.00,,-RA,36.38,VWS V14.01,2013-07-21 01:36:00,
2013-07-20 21:41:00,68.9,63.9,30.03,West,270,0.0,0.0,84,0.00,,-RA,36.38,VWS V14.01,2013-07-21 01:41:00,
2013-07-20 21:46:00,68.5,64.2,30.03,West,270,0.0,1.1,86,0.00,,-RA,36.38,VWS V14.01,2013-07-21 01:46:00,
2013-07-20 21:51:00,68.4,63.7,30.03,West,270,0.0,0.0,85,0.00,,-RA,36.38,VWS V14.01,2013-07-21 01:51:00,
2013-07-20 21:57:00,68.2,63.5,30.03,West,270,0.0,0.0,85,0.00,,-RA,36.38,VWS V14.01,2013-07-21 01:57:00,
2013-07-20 22:02:00,68.0,63.3,30.06,SSW,202,1.6,1.6,85,0.00,,CLR,36.38,VWS V14.01,2013-07-21 02:02:00,
2013-07-20 22:07:00,68.4,65.0,30.06,East,90,2.0,2.7,89,0.00,,CLR,36.38,VWS V14.01,2013-07-21 02:07:00,
2013-07-20 22:12:00,68.2,65.1,30.06,South,180,0.0,1.1,90,0.00,,CLR,36.38,VWS V14.01,2013-07-21 02:12:00,
2013-07-20 22:17:00,68.2,65.1,30.06,WNW,292,0.0,2.0,90,0.00,,CLR,36.38,VWS V14.01,2013-07-21 02:17:00,
2013-07-20 22:22:00,67.8,64.8,30.06,NW,315,0.0,0.0,90,0.00,,CLR,36.38,VWS V14.01,2013-07-21 02:22:00,
2013-07-20 22:27:00,67.8,65.1,30.06,ESE,112,2.0,2.0,91,0.00,,CLR,36.38,VWS V14.01,2013-07-21 02:27:00,
2013-07-20 22:32:00,67.8,65.1,30.03,SE,135,2.2,2.9,91,0.00,,CLR,36.38,VWS V14.01,2013-07-21 02:32:00,
2013-07-20 22:37:00,67.5,64.8,30.03,SW,225,0.0,0.0,91,0.00,,CLR,36.38,VWS V14.01,2013-07-21 02:37:00,
2013-07-20 22:42:00,67.1,64.4,30.03,SW,225,0.0,0.0,91,0.00,,CLR,36.38,VWS V14.01,2013-07-21 02:42:00,
2013-07-20 22:47:00,67.3,64.6,30.03,NE,45,0.0,0.9,91,0.00,,CLR,36.38,VWS V14.01,2013-07-21 02:47:00,
2013-07-20 22:52:00,67.1,64.7,30.03,NW,315,0.0,1.6,92,0.00,,CLR,36.38,VWS V14.01,2013-07-21 02:52:00,
2013-07-20 22:57:00,67.1,64.4,30.03,South,180,1.1,2.5,91,0.00,,CLR,36.38,VWS V14.01,2013-07-21 02:57:00,
2013-07-20 23:02:00,66.7,64.0,30.03,ENE,68,0.9,1.1,91,0.00,,CLR,36.38,VWS V14.01,2013-07-21 03:02:00,
2013-07-20 23:07:00,66.7,64.3,30.03,North,0,0.9,1.1,92,0.00,,CLR,36.38,VWS V14.01,2013-07-21 03:07:00,
2013-07-20 23:12:00,66.9,64.5,30.03,NNW,338,0.0,1.6,92,0.00,,CLR,36.38,VWS V14.01,2013-07-21 03:12:00,
2013-07-20 23:17:00,66.7,64.3,30.03,SE,135,1.6,1.6,92,0.00,,CLR,36.38,VWS V14.01,2013-07-21 03:17:00,
2013-07-20 23:23:00,66.7,64.3,30.03,SE,135,0.0,2.0,92,0.00,,CLR,36.38,VWS V14.01,2013-07-21 03:23:00,
2013-07-20 23:28:00,66.6,64.2,30.03,SSE,158,0.0,0.0,92,0.00,,CLR,36.38,VWS V14.01,2013-07-21 03:28:00,
2013-07-20 23:33:00,66.2,63.8,30.03,ENE,68,0.0,0.0,92,0.00,,CLR,36.38,VWS V14.01,2013-07-21 03:33:00,
2013-07-20 23:38:00,66.4,64.6,30.03,SE,135,1.3,1.6,94,0.00,,CLR,36.38,VWS V14.01,2013-07-21 03:38:00,
2013-07-20 23:43:00,66.7,65.3,30.03,ESE,112,2.5,3.1,95,0.00,,CLR,36.38,VWS V14.01,2013-07-21 03:43:00,
2013-07-20 23:48:00,66.7,65.3,30.03,SE,135,2.7,3.1,95,0.00,,CLR,36.38,VWS V14.01,2013-07-21 03:48:00,
2013-07-20 23:53:00,66.4,65.2,30.03,East,90,0.0,2.5,96,0.00,,CLR,36.38,VWS V14.01,2013-07-21 03:53:00,
2013-07-20 23:58:00,66.4,65.2,30.03,East,90,0.0,2.2,96,0.00,,CLR,36.38,VWS V14.01,2013-07-21 03:58:00,